Hiattville, Kansas
Current Conditions -  °F | °C
As of 4:55 AM on Wednesday 22 Oct 2014 (Local Time) from KPTS Reporting Station
Clear Clear  
Wind Chill: 56°   Ceiling: Unl
Heat Index: 56°   Visibility: 10mi
Dew Point: 50°   Wind: 5mph
Humidity: 80%   Direction: 140°SE
Pressure: 30.11"   Gusts: NA
Location:  37.8381°N, 94.721°W
Report Text: KPTS 220955Z AUTO 14004KT 10SM CLR 13/10 A3011 RMK AO2 T01330099
Loading
Personal Weather Stations






























Interactive Weather Map
Tropical Storm Tracking
New forecast layout! Learn more

10-Day Weather Forecast

Advertisements
Track Severe Weather on mobile